Time;durP1;ratioP1;P1;durP2;ratioP2;P2;SDS_P1;SDS_P2;PMS_P1;PMS_P2;Temp;Humidity;BMP_temperature;BMP_pressure;BME280_temperature;BME280_humidity;BME280_pressure;Samples;Min_cycle;Max_cycle;Signal;HPM_P1;HPM_P2
2024/01/31 00:01:50;;;;;;;3.65;0.10;;;5.70;99.90;;;;;;4992696;28;20034;-74
2024/01/31 00:04:15;;;;;;;1.27;0.00;;;5.70;99.90;;;;;;4975529;28;20037;-74
2024/01/31 00:06:41;;;;;;;3.95;0.22;;;5.70;99.90;;;;;;4988855;28;20120;-73
2024/01/31 00:09:07;;;;;;;0.77;0.03;;;5.80;99.90;;;;;;4988683;28;20034;-74
2024/01/31 00:11:33;;;;;;;0.50;0.10;;;5.70;99.90;;;;;;4991692;28;20057;-74
2024/01/31 00:13:59;;;;;;;0.30;0.13;;;5.80;99.90;;;;;;4989705;28;20040;-74
2024/01/31 00:16:24;;;;;;;0.35;0.22;;;5.80;99.90;;;;;;4992753;28;20038;-74
2024/01/31 00:18:50;;;;;;;0.00;0.00;;;5.80;99.90;;;;;;4989512;28;20049;-74
2024/01/31 00:21:17;;;;;;;1.85;0.15;;;5.80;99.90;;;;;;4996399;28;20033;-74
2024/01/31 00:23:43;;;;;;;0.13;0.10;;;5.70;99.90;;;;;;4993750;28;20034;-73
2024/01/31 00:26:08;;;;;;;0.00;0.00;;;5.90;99.90;;;;;;4995954;28;20037;-74
2024/01/31 00:28:34;;;;;;;0.10;0.00;;;5.90;99.90;;;;;;4988053;28;20042;-74
2024/01/31 00:31:00;;;;;;;0.28;0.20;;;5.90;99.90;;;;;;4993770;28;20053;-74
2024/01/31 00:33:25;;;;;;;0.65;0.00;;;5.80;99.90;;;;;;4989490;28;20064;-73
2024/01/31 00:35:52;;;;;;;0.22;0.10;;;5.80;99.90;;;;;;4976283;28;20445;-74
2024/01/31 00:38:17;;;;;;;0.43;0.10;;;5.80;99.90;;;;;;4995291;28;20493;-75
2024/01/31 00:40:43;;;;;;;0.52;0.13;;;5.80;99.90;;;;;;4979643;28;20046;-73
2024/01/31 00:43:10;;;;;;;0.45;0.40;;;5.80;99.90;;;;;;4993626;28;20053;-73
2024/01/31 00:45:35;;;;;;;0.00;0.00;;;5.80;99.90;;;;;;4988190;28;20121;-74
2024/01/31 00:48:02;;;;;;;0.47;0.10;;;5.80;99.90;;;;;;4972581;28;20121;-73
2024/01/31 00:50:27;;;;;;;1.92;0.52;;;5.90;99.90;;;;;;4990335;28;20115;-74
2024/01/31 00:52:53;;;;;;;0.90;0.17;;;5.80;99.90;;;;;;4989335;28;20803;-74
2024/01/31 00:55:19;;;;;;;1.35;0.45;;;5.80;99.90;;;;;;4990969;28;20058;-74
2024/01/31 00:57:46;;;;;;;0.13;0.05;;;5.80;99.90;;;;;;4974459;28;20145;-74
2024/01/31 01:00:12;;;;;;;0.15;0.08;;;5.80;99.90;;;;;;4994881;28;20044;-74
2024/01/31 01:02:41;;;;;;;0.08;0.08;;;5.80;99.90;;;;;;4991592;28;20050;-74
2024/01/31 01:05:10;;;;;;;4.18;0.17;;;5.80;99.90;;;;;;4994354;28;20038;-74
2024/01/31 01:07:39;;;;;;;0.13;0.05;;;5.80;99.90;;;;;;4975148;28;20049;-76
2024/01/31 01:10:15;;;;;;;0.00;0.00;;;5.70;99.90;;;;;;5006291;28;20037;-75
2024/01/31 01:12:42;;;;;;;0.10;0.10;;;5.70;99.90;;;;;;4986620;28;20065;-75
2024/01/31 01:15:11;;;;;;;0.47;0.20;;;5.70;99.90;;;;;;4994262;28;20034;-74
2024/01/31 01:17:40;;;;;;;0.10;0.10;;;5.70;99.90;;;;;;4990033;28;20038;-74
2024/01/31 01:20:08;;;;;;;2.00;0.10;;;5.70;99.90;;;;;;4991238;28;20042;-74
2024/01/31 01:22:34;;;;;;;1.25;0.00;;;5.70;99.90;;;;;;4989533;28;20523;-74
2024/01/31 01:25:00;;;;;;;0.90;0.08;;;5.70;99.90;;;;;;4988832;28;20054;-74
2024/01/31 01:27:25;;;;;;;0.30;0.10;;;5.70;99.90;;;;;;4993378;28;20049;-76
2024/01/31 01:29:51;;;;;;;0.10;0.10;;;5.70;99.90;;;;;;4994111;28;20400;-74
2024/01/31 01:32:17;;;;;;;1.05;0.28;;;5.70;99.90;;;;;;4989877;28;20043;-74
2024/01/31 01:34:43;;;;;;;1.45;0.10;;;5.60;99.90;;;;;;4990793;28;20189;-74
2024/01/31 01:37:08;;;;;;;1.08;0.22;;;5.60;99.90;;;;;;4993590;28;20578;-74
2024/01/31 01:39:35;;;;;;;0.05;0.05;;;5.70;99.90;;;;;;4986580;28;20371;-75
2024/01/31 01:42:01;;;;;;;0.00;0.00;;;5.70;99.90;;;;;;4990264;28;20483;-74
2024/01/31 01:44:32;;;;;;;0.00;0.00;;;5.60;99.90;;;;;;4989749;28;20375;-74
2024/01/31 01:46:58;;;;;;;0.10;0.00;;;5.70;99.90;;;;;;4983736;28;20035;-74
2024/01/31 01:49:24;;;;;;;0.05;0.00;;;5.60;99.90;;;;;;4990108;28;20571;-74
2024/01/31 01:51:51;;;;;;;0.00;0.00;;;5.60;99.90;;;;;;4982944;28;20193;-74
2024/01/31 01:54:17;;;;;;;0.08;0.00;;;5.60;99.90;;;;;;4990143;28;20046;-74
2024/01/31 01:56:45;;;;;;;0.00;0.00;;;5.60;99.90;;;;;;4994042;28;20034;-74
2024/01/31 01:59:12;;;;;;;0.15;0.05;;;5.60;99.90;;;;;;4993258;28;20037;-74
2024/01/31 02:01:41;;;;;;;0.00;0.00;;;5.60;99.90;;;;;;4988953;28;20038;-74
2024/01/31 02:04:08;;;;;;;0.10;0.10;;;5.60;99.90;;;;;;4992290;28;20046;-74
2024/01/31 02:06:34;;;;;;;2.42;0.17;;;5.60;99.90;;;;;;4988173;28;20045;-74
2024/01/31 02:09:00;;;;;;;0.00;0.00;;;5.60;99.90;;;;;;4990567;28;20026;-74
2024/01/31 02:11:26;;;;;;;0.90;0.05;;;5.60;99.90;;;;;;4990447;28;20160;-75
2024/01/31 02:13:52;;;;;;;1.95;0.13;;;5.60;99.90;;;;;;4987063;28;20035;-74
2024/01/31 02:16:18;;;;;;;1.38;0.17;;;5.60;99.90;;;;;;4982242;28;20108;-75
2024/01/31 02:18:44;;;;;;;1.60;0.25;;;5.60;99.90;;;;;;4987107;28;20038;-74
2024/01/31 02:21:09;;;;;;;0.10;0.10;;;5.60;99.90;;;;;;4989653;28;20036;-74
2024/01/31 02:23:35;;;;;;;0.08;0.00;;;5.60;99.90;;;;;;4987370;28;20046;-74
2024/01/31 02:26:01;;;;;;;0.00;0.00;;;5.60;99.90;;;;;;4965576;28;20042;-74
2024/01/31 02:28:27;;;;;;;0.00;0.00;;;5.60;99.90;;;;;;4989164;28;20072;-75
2024/01/31 02:30:53;;;;;;;6.18;0.20;;;5.60;99.90;;;;;;4981074;28;20057;-74
2024/01/31 02:33:19;;;;;;;0.00;0.00;;;5.60;99.90;;;;;;4973304;28;20121;-74
2024/01/31 02:35:44;;;;;;;0.25;0.05;;;5.60;99.90;;;;;;4987587;28;20521;-74
2024/01/31 02:38:10;;;;;;;0.00;0.00;;;5.60;99.90;;;;;;4989406;28;20042;-74
2024/01/31 02:40:36;;;;;;;0.15;0.00;;;5.60;99.90;;;;;;4991491;28;20161;-73
2024/01/31 02:43:01;;;;;;;1.85;0.10;;;5.60;99.90;;;;;;4989833;28;20456;-74
2024/01/31 02:45:27;;;;;;;0.00;0.00;;;5.60;99.90;;;;;;4992498;28;20457;-74
2024/01/31 02:47:53;;;;;;;0.57;0.05;;;5.60;99.90;;;;;;4989962;28;20048;-73
2024/01/31 02:50:19;;;;;;;2.42;0.10;;;5.60;99.90;;;;;;4988701;28;20042;-74
2024/01/31 02:52:45;;;;;;;0.20;0.10;;;5.60;99.90;;;;;;4972039;28;20049;-73
2024/01/31 02:55:12;;;;;;;3.17;0.20;;;5.60;99.90;;;;;;4991605;28;20216;-73
2024/01/31 02:57:37;;;;;;;0.00;0.00;;;5.60;99.90;;;;;;4990593;28;20081;-75
2024/01/31 03:00:04;;;;;;;0.63;0.10;;;5.60;99.90;;;;;;4991153;28;20041;-73
2024/01/31 03:02:30;;;;;;;0.00;0.00;;;5.50;99.90;;;;;;4975374;28;20048;-73
2024/01/31 03:04:55;;;;;;;0.75;0.03;;;5.60;99.90;;;;;;4989134;28;20046;-73
2024/01/31 03:07:21;;;;;;;0.30;0.05;;;5.60;99.90;;;;;;4989769;28;20108;-73
2024/01/31 03:09:47;;;;;;;0.00;0.00;;;5.60;99.90;;;;;;4985148;28;20030;-73
2024/01/31 03:12:12;;;;;;;1.05;0.05;;;5.50;99.90;;;;;;4988974;28;20120;-74
2024/01/31 03:14:39;;;;;;;0.35;0.20;;;5.50;99.90;;;;;;5000773;28;20053;-73
2024/01/31 03:17:04;;;;;;;0.15;0.10;;;5.50;99.90;;;;;;4986844;28;20114;-74
2024/01/31 03:19:32;;;;;;;1.48;0.17;;;5.50;99.90;;;;;;4987179;28;20124;-73
2024/01/31 03:21:58;;;;;;;3.42;0.35;;;5.50;99.90;;;;;;4990283;28;20108;-73
2024/01/31 03:24:25;;;;;;;0.00;0.00;;;5.50;99.90;;;;;;4985866;28;20048;-74
2024/01/31 03:26:51;;;;;;;0.10;0.10;;;5.50;99.90;;;;;;4984683;28;20448;-73
2024/01/31 03:29:16;;;;;;;1.65;0.57;;;5.50;99.90;;;;;;4990611;28;20081;-73
2024/01/31 03:31:42;;;;;;;4.53;0.30;;;5.50;99.90;;;;;;4988494;28;20070;-73
2024/01/31 03:34:08;;;;;;;0.35;0.17;;;5.50;99.90;;;;;;4992086;28;20100;-74
2024/01/31 03:36:35;;;;;;;0.20;0.10;;;5.50;99.90;;;;;;5005378;28;20070;-73
2024/01/31 03:39:01;;;;;;;2.47;0.28;;;5.50;99.90;;;;;;4987974;28;20451;-73
2024/01/31 03:41:27;;;;;;;1.13;0.20;;;5.50;99.90;;;;;;4987775;28;20036;-74
2024/01/31 03:43:54;;;;;;;1.08;0.22;;;5.50;99.90;;;;;;4989841;28;20041;-73
2024/01/31 03:46:20;;;;;;;0.40;0.10;;;5.50;99.90;;;;;;4987920;28;20046;-73
2024/01/31 03:48:47;;;;;;;0.10;0.10;;;5.50;99.90;;;;;;4977095;28;20046;-73
2024/01/31 03:51:19;;;;;;;0.15;0.00;;;5.50;99.90;;;;;;4994654;28;20072;-73
2024/01/31 03:53:45;;;;;;;0.90;0.05;;;5.50;99.90;;;;;;5008544;28;20046;-73
2024/01/31 03:56:11;;;;;;;0.08;0.00;;;5.50;99.90;;;;;;4977513;28;20065;-73
2024/01/31 03:58:38;;;;;;;1.65;0.20;;;5.50;99.90;;;;;;4994361;28;20042;-73
2024/01/31 04:01:04;;;;;;;0.15;0.10;;;5.50;99.90;;;;;;4977058;28;20387;-73
2024/01/31 04:03:30;;;;;;;0.03;0.03;;;5.50;99.90;;;;;;4991744;28;20046;-74
2024/01/31 04:05:55;;;;;;;0.00;0.00;;;5.60;99.90;;;;;;4990767;28;20035;-73
2024/01/31 04:08:21;;;;;;;0.10;0.00;;;5.50;99.90;;;;;;4992331;28;20042;-73
2024/01/31 04:10:47;;;;;;;0.17;0.08;;;5.50;99.90;;;;;;4990507;28;20093;-73
2024/01/31 04:13:13;;;;;;;0.00;0.00;;;5.40;99.90;;;;;;4993804;28;20042;-73
2024/01/31 04:15:39;;;;;;;0.00;0.00;;;5.50;99.90;;;;;;5008158;28;20425;-73
2024/01/31 04:18:07;;;;;;;2.90;0.45;;;5.40;99.90;;;;;;5009791;28;20348;-73
2024/01/31 04:20:39;;;;;;;0.80;0.10;;;5.40;99.90;;;;;;4984836;28;20073;-73
2024/01/31 04:23:05;;;;;;;0.00;0.00;;;5.40;99.90;;;;;;4976428;28;20448;-73
2024/01/31 04:25:31;;;;;;;1.75;0.40;;;5.30;99.90;;;;;;4992165;28;20108;-74
2024/01/31 04:27:57;;;;;;;2.55;0.08;;;5.30;99.90;;;;;;4992530;28;20050;-73
2024/01/31 04:30:22;;;;;;;0.00;0.00;;;5.30;99.90;;;;;;4992298;28;20046;-73
2024/01/31 04:32:49;;;;;;;0.15;0.10;;;5.30;99.90;;;;;;4991057;28;20132;-73
2024/01/31 04:35:14;;;;;;;1.65;0.03;;;5.30;99.90;;;;;;4993595;28;20096;-73
2024/01/31 04:37:40;;;;;;;1.30;0.30;;;5.20;99.90;;;;;;4992093;28;20072;-73
2024/01/31 04:40:07;;;;;;;0.00;0.00;;;5.20;99.90;;;;;;4995314;28;20053;-73
2024/01/31 04:42:32;;;;;;;0.00;0.00;;;5.10;99.90;;;;;;4991820;28;20050;-73
2024/01/31 04:44:58;;;;;;;5.15;0.45;;;5.10;99.90;;;;;;4991787;28;20517;-75
2024/01/31 04:47:25;;;;;;;2.63;0.08;;;5.00;99.90;;;;;;4989509;28;20038;-74
2024/01/31 04:50:01;;;;;;;0.08;0.05;;;4.90;99.90;;;;;;4990645;28;20049;-75
2024/01/31 04:52:26;;;;;;;0.28;0.00;;;4.80;99.90;;;;;;4983329;28;20042;-75
2024/01/31 04:54:53;;;;;;;0.00;0.00;;;4.80;99.90;;;;;;4995148;28;20053;-75
2024/01/31 04:57:19;;;;;;;0.05;0.00;;;4.80;99.90;;;;;;4989699;28;20054;-75
2024/01/31 04:59:44;;;;;;;0.00;0.00;;;4.70;99.90;;;;;;4992462;28;20100;-75
2024/01/31 05:02:10;;;;;;;0.22;0.10;;;4.70;99.90;;;;;;4993601;28;20121;-75
2024/01/31 05:04:37;;;;;;;0.00;0.00;;;4.60;99.90;;;;;;4991009;28;20046;-74
2024/01/31 05:07:03;;;;;;;5.28;0.10;;;4.60;99.90;;;;;;4989680;28;20398;-75
2024/01/31 05:09:29;;;;;;;1.17;0.75;;;4.60;99.90;;;;;;4986696;28;20157;-74
2024/01/31 05:11:55;;;;;;;0.00;0.00;;;4.50;99.90;;;;;;4986122;28;20534;-74
2024/01/31 05:14:21;;;;;;;3.22;0.30;;;4.50;99.90;;;;;;4989965;28;20038;-73
2024/01/31 05:16:48;;;;;;;1.45;0.08;;;4.50;99.90;;;;;;4975933;28;20438;-75
2024/01/31 05:19:13;;;;;;;0.00;0.00;;;4.50;99.90;;;;;;4992117;28;20112;-74
2024/01/31 05:21:50;;;;;;;0.00;0.00;;;4.50;99.90;;;;;;4990405;28;20078;-74
2024/01/31 05:24:16;;;;;;;0.45;0.05;;;4.50;99.90;;;;;;4989628;28;20060;-74
2024/01/31 05:26:43;;;;;;;0.00;0.00;;;4.60;99.90;;;;;;4990066;28;20073;-74
2024/01/31 05:29:09;;;;;;;6.07;0.90;;;4.60;99.90;;;;;;4990027;28;20049;-74
2024/01/31 05:31:35;;;;;;;0.10;0.05;;;4.60;99.90;;;;;;4983467;28;20053;-74
2024/01/31 05:34:01;;;;;;;0.00;0.00;;;4.60;99.90;;;;;;4990454;28;20044;-74
2024/01/31 05:36:27;;;;;;;0.00;0.00;;;4.70;99.90;;;;;;5005410;28;20038;-75
2024/01/31 05:38:52;;;;;;;0.68;0.15;;;4.80;99.90;;;;;;4981831;28;20034;-74
2024/01/31 05:41:18;;;;;;;0.03;0.03;;;4.70;99.90;;;;;;4997837;28;20116;-74
2024/01/31 05:43:45;;;;;;;1.08;0.10;;;4.80;99.90;;;;;;4990415;28;20046;-74
2024/01/31 05:46:15;;;;;;;0.00;0.00;;;4.90;99.90;;;;;;4992078;28;20046;-74
2024/01/31 05:48:41;;;;;;;3.85;0.17;;;4.90;99.90;;;;;;4991644;28;20034;-74
2024/01/31 05:51:06;;;;;;;1.65;0.35;;;4.90;99.90;;;;;;4991529;28;20366;-73
2024/01/31 05:53:33;;;;;;;0.00;0.00;;;4.90;99.90;;;;;;4987706;28;20050;-74
2024/01/31 05:55:59;;;;;;;0.30;0.10;;;5.00;99.90;;;;;;4989050;28;20054;-74
2024/01/31 05:58:24;;;;;;;0.10;0.10;;;4.90;99.90;;;;;;4986948;28;20056;-74
2024/01/31 06:00:51;;;;;;;0.00;0.00;;;5.00;99.90;;;;;;4989614;28;20040;-74
2024/01/31 06:03:17;;;;;;;0.00;0.00;;;5.00;99.90;;;;;;4993564;28;20061;-74
2024/01/31 06:05:43;;;;;;;0.05;0.00;;;5.10;99.90;;;;;;4990382;28;20057;-74
2024/01/31 06:08:09;;;;;;;0.00;0.00;;;5.10;99.90;;;;;;4992030;28;20431;-74
2024/01/31 06:10:34;;;;;;;0.00;0.00;;;5.10;99.90;;;;;;5004584;28;20125;-74
2024/01/31 06:13:00;;;;;;;0.30;0.20;;;5.10;99.90;;;;;;4963174;28;20130;-74
2024/01/31 06:15:26;;;;;;;2.55;0.10;;;5.10;99.90;;;;;;4985933;28;20069;-73
2024/01/31 06:17:52;;;;;;;0.15;0.00;;;5.10;99.90;;;;;;4990718;28;20350;-74
2024/01/31 06:20:19;;;;;;;0.10;0.05;;;5.10;99.90;;;;;;4977213;28;20038;-74
2024/01/31 06:22:45;;;;;;;0.00;0.00;;;5.20;99.90;;;;;;4988229;28;20056;-74
2024/01/31 06:25:11;;;;;;;0.57;0.13;;;5.20;99.90;;;;;;4989026;28;20046;-74
2024/01/31 06:27:37;;;;;;;0.30;0.20;;;5.20;99.90;;;;;;4972038;28;20034;-75
2024/01/31 06:30:04;;;;;;;0.08;0.00;;;5.20;99.90;;;;;;4986453;28;20054;-74
2024/01/31 06:32:32;;;;;;;0.43;0.08;;;5.20;99.90;;;;;;4990411;28;20129;-74
2024/01/31 06:35:01;;;;;;;0.38;0.10;;;5.20;99.90;;;;;;4988978;28;20057;-74
2024/01/31 06:37:27;;;;;;;0.20;0.10;;;5.20;99.90;;;;;;5002764;28;20092;-74
2024/01/31 06:39:54;;;;;;;0.17;0.10;;;5.30;99.90;;;;;;4984363;28;20042;-74
2024/01/31 06:42:20;;;;;;;3.50;0.10;;;5.20;99.90;;;;;;4987300;28;20512;-74
2024/01/31 06:44:46;;;;;;;3.35;0.08;;;5.30;99.90;;;;;;4986537;28;20042;-74
2024/01/31 06:47:11;;;;;;;9.52;3.10;;;5.20;99.90;;;;;;4991497;28;20042;-75
2024/01/31 06:49:40;;;;;;;2.78;1.08;;;5.30;99.90;;;;;;4988731;28;20046;-74
2024/01/31 06:52:06;;;;;;;0.95;0.30;;;5.30;99.90;;;;;;4988550;28;20039;-74
2024/01/31 06:54:32;;;;;;;0.10;0.00;;;5.30;99.90;;;;;;4974551;28;20034;-74
2024/01/31 06:56:58;;;;;;;1.08;0.47;;;5.20;99.90;;;;;;4990484;28;20123;-74
2024/01/31 06:59:24;;;;;;;0.47;0.25;;;5.30;99.90;;;;;;5005044;28;20073;-75
2024/01/31 07:01:49;;;;;;;0.30;0.10;;;5.30;99.90;;;;;;4974208;28;20386;-75
2024/01/31 07:04:15;;;;;;;2.38;0.40;;;5.30;99.90;;;;;;4991416;28;20049;-75
2024/01/31 07:06:41;;;;;;;1.42;0.20;;;5.30;99.90;;;;;;4990091;28;20065;-75
2024/01/31 07:09:07;;;;;;;1.63;0.30;;;5.30;99.90;;;;;;4991441;28;20496;-74
2024/01/31 07:11:34;;;;;;;0.43;0.28;;;5.40;99.90;;;;;;4974840;28;20034;-75
2024/01/31 07:14:02;;;;;;;2.45;0.60;;;5.30;99.90;;;;;;4987902;28;20501;-74
2024/01/31 07:16:28;;;;;;;0.73;0.20;;;5.30;99.90;;;;;;4988577;28;20049;-74
2024/01/31 07:18:55;;;;;;;2.92;0.98;;;5.40;99.90;;;;;;4989416;28;20102;-74
2024/01/31 07:21:25;;;;;;;5.00;1.20;;;5.30;99.90;;;;;;4974433;28;20378;-75
2024/01/31 07:23:51;;;;;;;4.15;0.43;;;5.40;99.90;;;;;;4977467;28;20490;-75
2024/01/31 07:26:22;;;;;;;1.58;0.80;;;5.40;99.90;;;;;;4994204;28;20081;-74
2024/01/31 07:28:47;;;;;;;3.10;0.73;;;5.40;99.90;;;;;;4990651;28;20049;-74
2024/01/31 07:31:13;;;;;;;0.30;0.30;;;5.40;99.90;;;;;;4997272;28;20077;-74
2024/01/31 07:33:39;;;;;;;0.10;0.10;;;5.30;99.90;;;;;;4994494;28;20046;-74
2024/01/31 07:36:05;;;;;;;4.68;0.85;;;5.40;99.90;;;;;;5012747;28;20034;-75
2024/01/31 07:38:30;;;;;;;2.83;0.43;;;5.40;99.90;;;;;;4996276;28;20041;-74
2024/01/31 07:40:56;;;;;;;3.70;0.47;;;5.40;99.90;;;;;;4993668;28;20039;-75
2024/01/31 07:43:25;;;;;;;2.53;0.43;;;5.30;99.90;;;;;;4995784;28;20431;-74
2024/01/31 07:45:51;;;;;;;1.90;0.75;;;5.40;99.90;;;;;;4995991;28;20108;-74
2024/01/31 07:48:17;;;;;;;0.80;0.63;;;5.40;99.90;;;;;;4997285;28;20045;-74
2024/01/31 07:50:43;;;;;;;2.25;0.60;;;5.40;99.90;;;;;;4994228;28;20162;-74
2024/01/31 07:53:08;;;;;;;1.33;0.60;;;5.40;99.90;;;;;;4995198;28;20125;-74
2024/01/31 07:55:35;;;;;;;2.08;0.80;;;5.40;99.90;;;;;;4995747;28;20569;-75
2024/01/31 07:58:01;;;;;;;1.58;1.05;;;5.40;99.90;;;;;;4978059;28;20405;-75
2024/01/31 08:00:27;;;;;;;1.33;0.55;;;5.40;99.90;;;;;;4992455;28;20033;-74
2024/01/31 08:02:52;;;;;;;2.90;0.50;;;5.40;99.90;;;;;;4975929;28;20897;-74
2024/01/31 08:05:18;;;;;;;0.50;0.28;;;5.40;99.90;;;;;;4996330;28;20080;-75
2024/01/31 08:07:45;;;;;;;0.55;0.30;;;5.50;99.90;;;;;;4993184;28;20045;-74
2024/01/31 08:10:12;;;;;;;0.32;0.30;;;5.50;99.90;;;;;;5012013;28;20181;-74
2024/01/31 08:12:39;;;;;;;0.47;0.30;;;5.50;99.90;;;;;;4993052;28;20707;-74
2024/01/31 08:15:05;;;;;;;1.13;0.63;;;5.50;99.90;;;;;;4996093;28;20088;-74
2024/01/31 08:17:31;;;;;;;1.50;0.43;;;5.50;99.90;;;;;;4993479;28;20351;-74
2024/01/31 08:19:56;;;;;;;1.73;0.63;;;5.60;99.90;;;;;;4978700;28;20113;-74
2024/01/31 08:22:22;;;;;;;2.38;0.47;;;5.50;99.90;;;;;;4994986;28;20516;-74
2024/01/31 08:24:48;;;;;;;2.40;0.75;;;5.60;99.90;;;;;;4995637;28;20058;-74
2024/01/31 08:27:13;;;;;;;0.75;0.52;;;5.60;99.90;;;;;;4995054;28;20081;-74
2024/01/31 08:29:39;;;;;;;0.90;0.35;;;5.60;99.90;;;;;;4994219;28;20184;-75
2024/01/31 08:32:05;;;;;;;0.20;0.20;;;5.70;99.90;;;;;;4993767;28;20513;-74
2024/01/31 08:34:31;;;;;;;2.25;0.80;;;5.60;99.90;;;;;;4992982;28;20129;-74
2024/01/31 08:36:56;;;;;;;0.93;0.65;;;5.70;99.90;;;;;;4994218;28;20125;-74
2024/01/31 08:39:22;;;;;;;1.25;0.50;;;5.70;99.90;;;;;;5011346;28;20038;-74
2024/01/31 08:41:49;;;;;;;0.90;0.70;;;5.70;99.90;;;;;;4991844;28;20038;-74
2024/01/31 08:44:15;;;;;;;1.40;0.40;;;5.70;99.90;;;;;;4975737;28;20045;-74
2024/01/31 08:46:41;;;;;;;0.93;0.45;;;5.80;99.90;;;;;;4994264;28;20151;-74
2024/01/31 08:49:06;;;;;;;1.00;0.60;;;5.80;99.90;;;;;;4995011;28;20470;-72
2024/01/31 08:51:35;;;;;;;0.65;0.45;;;5.80;99.90;;;;;;5009831;28;20088;-72
2024/01/31 08:54:01;;;;;;;0.70;0.57;;;5.80;99.90;;;;;;4992140;28;20042;-73
2024/01/31 08:56:27;;;;;;;0.50;0.30;;;5.90;99.90;;;;;;4992884;28;20116;-73
2024/01/31 08:58:53;;;;;;;0.20;0.20;;;5.90;99.90;;;;;;4989749;28;20030;-73
2024/01/31 09:01:19;;;;;;;0.43;0.40;;;6.00;99.90;;;;;;4994856;28;20745;-74
2024/01/31 09:03:44;;;;;;;1.48;0.38;;;6.00;99.90;;;;;;4993330;28;20076;-73
2024/01/31 09:06:10;;;;;;;3.90;0.65;;;6.00;99.90;;;;;;4975000;28;20056;-73
2024/01/31 09:08:36;;;;;;;2.28;0.30;;;6.00;99.90;;;;;;5009860;28;20052;-73
2024/01/31 09:11:02;;;;;;;1.23;0.57;;;6.10;99.90;;;;;;4993127;28;20049;-73
2024/01/31 09:13:28;;;;;;;0.65;0.43;;;6.00;99.90;;;;;;4991202;28;20046;-74
2024/01/31 09:15:54;;;;;;;0.98;0.57;;;6.10;99.90;;;;;;4991786;28;20034;-73
2024/01/31 09:18:20;;;;;;;0.68;0.45;;;6.10;99.90;;;;;;4994085;28;20044;-74
2024/01/31 09:20:46;;;;;;;1.40;0.73;;;6.20;99.90;;;;;;4994011;28;20120;-73
2024/01/31 09:23:11;;;;;;;2.78;1.02;;;6.20;99.90;;;;;;4993367;28;20534;-73
2024/01/31 09:25:37;;;;;;;3.05;0.57;;;6.20;99.90;;;;;;5010703;28;20489;-73
2024/01/31 09:28:03;;;;;;;0.98;0.80;;;6.30;99.90;;;;;;4991565;28;20090;-73
2024/01/31 09:30:29;;;;;;;0.32;0.22;;;6.30;99.90;;;;;;4992323;28;20136;-73
2024/01/31 09:32:54;;;;;;;1.00;0.50;;;6.30;99.90;;;;;;4991262;28;20460;-73
2024/01/31 09:35:20;;;;;;;1.92;0.70;;;6.40;99.90;;;;;;4994130;28;20033;-73
2024/01/31 09:37:46;;;;;;;0.47;0.40;;;6.40;99.90;;;;;;4975771;28;20084;-73
2024/01/31 09:40:15;;;;;;;0.50;0.38;;;6.50;99.90;;;;;;4991374;28;20070;-72
2024/01/31 09:42:43;;;;;;;1.05;0.68;;;6.50;99.90;;;;;;5007199;28;20424;-73
2024/01/31 09:45:12;;;;;;;0.80;0.50;;;6.50;99.90;;;;;;4993123;28;20124;-73
2024/01/31 09:47:42;;;;;;;1.50;0.68;;;6.50;99.90;;;;;;4989971;28;20417;-74
2024/01/31 09:50:07;;;;;;;2.67;0.80;;;6.50;99.90;;;;;;4993045;28;20030;-73
2024/01/31 09:52:38;;;;;;;0.55;0.32;;;6.50;99.90;;;;;;4992741;28;20544;-72
2024/01/31 09:55:06;;;;;;;1.75;0.55;;;6.60;99.90;;;;;;4975082;28;20498;-73
2024/01/31 09:57:32;;;;;;;1.55;0.80;;;6.60;99.90;;;;;;4992633;28;20048;-73
2024/01/31 10:00:00;;;;;;;0.98;0.45;;;6.60;99.90;;;;;;5008389;28;20098;-73
2024/01/31 10:02:29;;;;;;;0.95;0.60;;;6.70;99.90;;;;;;4991673;28;20049;-73
2024/01/31 10:04:55;;;;;;;1.17;0.70;;;6.70;99.90;;;;;;4990664;28;20032;-73
2024/01/31 10:07:48;;;;;;;0.82;0.52;;;6.70;99.90;;;;;;4993749;28;20097;-73
2024/01/31 10:10:14;;;;;;;2.78;1.20;;;6.80;99.90;;;;;;4992582;28;20486;-73
2024/01/31 10:12:40;;;;;;;1.17;0.75;;;6.80;99.90;;;;;;4988375;28;20037;-74
2024/01/31 10:15:10;;;;;;;1.00;0.52;;;6.90;99.90;;;;;;4993809;28;20116;-73
2024/01/31 10:17:35;;;;;;;2.53;0.82;;;6.90;99.90;;;;;;4992935;28;20044;-74
2024/01/31 10:20:07;;;;;;;0.95;0.57;;;6.90;99.90;;;;;;4991252;28;20693;-73
2024/01/31 10:22:34;;;;;;;3.20;0.93;;;6.90;99.90;;;;;;5007736;28;20085;-73
2024/01/31 10:25:00;;;;;;;0.55;0.45;;;6.90;99.90;;;;;;4974944;28;20042;-73
2024/01/31 10:27:26;;;;;;;0.63;0.30;;;6.90;99.90;;;;;;4992461;28;20049;-73
2024/01/31 10:29:53;;;;;;;23.92;12.75;;;6.90;99.90;;;;;;4991463;28;20037;-73
2024/01/31 10:32:20;;;;;;;1.30;0.90;;;6.90;99.90;;;;;;4993593;28;20054;-73
2024/01/31 10:34:47;;;;;;;3.08;0.90;;;7.00;99.90;;;;;;4989376;28;20045;-73
2024/01/31 10:37:14;;;;;;;1.60;1.17;;;7.00;99.90;;;;;;4991864;28;20145;-73
2024/01/31 10:39:40;;;;;;;5.13;0.60;;;7.00;99.90;;;;;;4990975;28;20076;-73
2024/01/31 10:42:06;;;;;;;1.38;0.73;;;7.00;99.90;;;;;;4991488;28;20045;-74
2024/01/31 10:44:37;;;;;;;1.17;0.73;;;7.00;99.90;;;;;;4989313;28;20351;-73
2024/01/31 10:47:04;;;;;;;3.20;1.15;;;7.10;99.90;;;;;;4990062;28;20378;-73
2024/01/31 10:49:30;;;;;;;2.40;1.00;;;7.10;99.90;;;;;;4988281;28;20446;-73
2024/01/31 10:52:00;;;;;;;1.88;1.17;;;7.10;99.90;;;;;;4992152;28;20037;-73
2024/01/31 10:54:30;;;;;;;2.38;1.00;;;7.10;99.90;;;;;;4989423;28;20045;-73
2024/01/31 10:56:56;;;;;;;1.50;1.30;;;7.20;99.90;;;;;;4988986;28;20054;-73
2024/01/31 10:59:22;;;;;;;1.17;0.82;;;7.20;99.90;;;;;;4974615;28;20386;-73
2024/01/31 11:01:54;;;;;;;2.17;0.88;;;7.20;99.90;;;;;;4988967;28;20049;-73
2024/01/31 11:04:21;;;;;;;1.45;0.80;;;7.20;99.90;;;;;;4982793;28;20508;-73
2024/01/31 11:06:51;;;;;;;2.38;1.52;;;7.20;99.90;;;;;;4992833;28;20045;-73
2024/01/31 11:09:27;;;;;;;1.23;0.85;;;7.20;99.90;;;;;;4975183;28;20049;-73
2024/01/31 11:12:06;;;;;;;2.08;0.90;;;7.30;99.90;;;;;;4990618;28;20079;-73
2024/01/31 11:14:33;;;;;;;1.00;0.77;;;7.30;99.90;;;;;;4992564;28;20203;-74
2024/01/31 11:17:17;;;;;;;2.35;1.20;;;7.30;99.90;;;;;;4976065;28;20544;-73
2024/01/31 11:19:53;;;;;;;2.42;1.20;;;7.30;99.90;;;;;;4993896;28;20045;-74
2024/01/31 11:22:19;;;;;;;1.73;1.15;;;7.30;99.90;;;;;;4973000;28;20046;-74
2024/01/31 11:24:47;;;;;;;2.42;1.42;;;7.30;99.90;;;;;;4992814;28;20112;-73
2024/01/31 11:27:14;;;;;;;2.72;1.35;;;7.30;99.90;;;;;;5007984;28;20071;-74
2024/01/31 11:29:46;;;;;;;2.30;1.23;;;7.30;99.90;;;;;;4993919;28;20049;-73
2024/01/31 11:32:12;;;;;;;5.90;1.27;;;7.30;99.90;;;;;;4993312;28;20175;-74
2024/01/31 11:34:39;;;;;;;3.13;1.85;;;7.30;99.90;;;;;;4992169;28;20474;-74
2024/01/31 11:37:05;;;;;;;2.13;1.40;;;7.30;99.90;;;;;;4991111;28;20182;-73
2024/01/31 11:39:30;;;;;;;1.65;0.88;;;7.30;99.90;;;;;;4973615;28;20038;-73
2024/01/31 11:41:56;;;;;;;1.70;1.05;;;7.30;99.90;;;;;;5006738;28;20121;-74
2024/01/31 11:44:22;;;;;;;1.63;1.23;;;7.30;99.90;;;;;;4991579;28;20049;-73
2024/01/31 11:46:50;;;;;;;2.50;1.20;;;7.30;99.90;;;;;;4993429;28;20133;-74
2024/01/31 11:49:16;;;;;;;1.63;1.20;;;7.30;99.90;;;;;;4991818;28;20375;-74
2024/01/31 11:51:42;;;;;;;3.13;0.95;;;7.30;99.90;;;;;;4992872;28;20056;-73
2024/01/31 11:54:09;;;;;;;1.15;0.90;;;7.40;99.90;;;;;;4989681;28;20041;-73
2024/01/31 11:56:35;;;;;;;2.08;1.42;;;7.30;99.90;;;;;;4973844;28;20128;-74
2024/01/31 11:59:03;;;;;;;1.88;1.35;;;7.40;99.90;;;;;;4991737;28;20120;-73
2024/01/31 12:01:30;;;;;;;5.05;1.30;;;7.40;99.90;;;;;;4991937;28;20132;-73
2024/01/31 12:03:56;;;;;;;1.10;1.00;;;7.50;99.90;;;;;;4992445;28;20116;-73
2024/01/31 12:06:22;;;;;;;6.43;1.40;;;7.60;99.90;;;;;;4992786;28;20042;-73
2024/01/31 12:08:50;;;;;;;2.05;1.13;;;7.60;99.90;;;;;;4994715;28;20125;-74
2024/01/31 12:11:16;;;;;;;1.52;1.27;;;7.70;99.90;;;;;;4996265;28;20052;-73
2024/01/31 12:13:45;;;;;;;5.32;1.90;;;7.70;99.90;;;;;;4995271;28;20044;-73
2024/01/31 12:16:11;;;;;;;1.77;1.20;;;7.70;99.90;;;;;;5012079;28;20029;-73
2024/01/31 12:18:37;;;;;;;1.45;1.00;;;7.70;99.90;;;;;;4980195;28;20099;-73
2024/01/31 12:21:04;;;;;;;2.58;1.80;;;7.70;99.90;;;;;;4996116;28;20510;-74
2024/01/31 12:23:31;;;;;;;1.75;1.02;;;7.70;99.90;;;;;;4976652;28;20080;-74
2024/01/31 12:25:57;;;;;;;1.58;1.17;;;7.70;99.90;;;;;;4999235;28;20045;-73
2024/01/31 12:28:24;;;;;;;2.60;1.40;;;7.80;99.90;;;;;;4986021;28;20085;-72
2024/01/31 12:30:51;;;;;;;2.22;1.35;;;7.80;99.90;;;;;;4994233;28;20073;-73
2024/01/31 12:33:20;;;;;;;1.50;1.08;;;7.80;99.90;;;;;;5011267;28;20050;-73
2024/01/31 12:35:46;;;;;;;2.58;1.25;;;7.80;99.90;;;;;;4991123;28;20483;-73
2024/01/31 12:38:13;;;;;;;2.10;1.52;;;7.80;99.90;;;;;;4994053;28;20077;-74
2024/01/31 12:40:39;;;;;;;2.75;1.73;;;7.80;99.90;;;;;;4993259;28;20116;-73
2024/01/31 12:43:05;;;;;;;2.22;1.92;;;7.80;99.90;;;;;;4992851;28;20038;-74
2024/01/31 12:45:33;;;;;;;4.15;2.00;;;7.80;99.90;;;;;;4995935;28;20477;-74
2024/01/31 12:48:02;;;;;;;2.33;1.63;;;7.80;99.90;;;;;;4993864;28;20434;-74
2024/01/31 12:50:28;;;;;;;2.75;1.55;;;7.80;99.90;;;;;;4994866;28;20033;-73
2024/01/31 12:52:53;;;;;;;1.98;1.58;;;7.80;99.90;;;;;;5007442;28;20048;-73
2024/01/31 12:55:19;;;;;;;4.43;2.25;;;7.80;99.90;;;;;;4988720;28;20085;-74